Time;durP1;ratioP1;P1;durP2;ratioP2;P2;SDS_P1;SDS_P2;PMS_P1;PMS_P2;Temp;Humidity;BMP_temperature;BMP_pressure;BME280_temperature;BME280_humidity;BME280_pressure;Samples;Min_cycle;Max_cycle;Signal;HPM_P1;HPM_P2
2022/06/22 18:47:21;;;;;;;11.35;6.03;;;28.40;99.90;;;;;;6226591;22;20024;-95
2022/06/22 19:00:40;;;;;;;12.30;5.97;;;28.30;99.90;;;;;;6277831;22;20019;-93
2022/06/22 19:03:23;;;;;;;6.88;5.60;;;28.30;99.90;;;;;;6228144;22;20375;-94
2022/06/22 19:05:51;;;;;;;7.32;5.50;;;28.30;99.90;;;;;;6234718;22;20016;-91
2022/06/22 19:08:29;;;;;;;6.97;5.60;;;28.20;99.90;;;;;;6222359;23;20087;-91
2022/06/22 19:11:06;;;;;;;11.25;5.97;;;28.20;99.90;;;;;;6222449;23;20008;-91
2022/06/22 19:13:39;;;;;;;14.40;5.68;;;28.10;99.90;;;;;;6197602;23;20015;-92
2022/06/22 19:16:34;;;;;;;8.70;5.60;;;28.10;99.90;;;;;;6198933;23;20012;-92
2022/06/22 19:19:14;;;;;;;9.90;6.07;;;28.00;99.90;;;;;;6197619;23;20004;-92
2022/06/22 19:22:15;;;;;;;9.90;5.70;;;28.00;99.90;;;;;;6197651;23;20007;-92
2022/06/22 19:25:02;;;;;;;9.38;5.47;;;27.90;99.90;;;;;;6197262;23;20043;-91
2022/06/22 19:27:43;;;;;;;11.45;5.55;;;27.80;99.90;;;;;;6197351;23;20015;-91
2022/06/22 19:30:14;;;;;;;10.93;5.28;;;27.70;99.90;;;;;;6197137;23;20035;-90
2022/06/22 19:32:59;;;;;;;10.48;5.53;;;27.70;99.90;;;;;;6197178;23;20086;-90
2022/06/22 19:35:42;;;;;;;9.23;6.15;;;27.70;99.90;;;;;;6197268;23;20015;-90
2022/06/22 19:38:09;;;;;;;8.68;5.32;;;27.70;99.90;;;;;;6197338;23;20015;-89
2022/06/22 19:41:01;;;;;;;7.45;6.15;;;27.70;99.90;;;;;;6197294;23;20000;-90
2022/06/22 19:44:06;;;;;;;10.55;5.40;;;27.70;99.90;;;;;;6199007;23;20038;-90
2022/06/22 19:46:57;;;;;;;8.65;6.43;;;27.70;99.90;;;;;;6069034;23;20010;-91
2022/06/22 19:49:46;;;;;;;21.08;9.55;;;27.60;99.90;;;;;;6197252;23;20008;-90
2022/06/22 19:52:38;;;;;;;21.40;10.90;;;27.50;99.90;;;;;;6197111;23;20011;-89
2022/06/22 19:55:43;;;;;;;18.73;10.45;;;27.30;99.90;;;;;;6196956;23;20103;-90
2022/06/22 19:58:10;;;;;;;17.53;9.67;;;27.30;99.90;;;;;;6196813;23;20004;-90
2022/06/22 20:00:43;;;;;;;20.50;11.15;;;27.20;99.90;;;;;;6196544;23;20093;-89
2022/06/22 20:03:24;;;;;;;18.08;9.70;;;27.20;99.90;;;;;;6196920;23;20449;-91
2022/06/22 20:06:00;;;;;;;13.23;8.20;;;27.20;99.90;;;;;;6197054;23;20008;-90
2022/06/22 20:08:48;;;;;;;11.52;7.50;;;27.10;99.90;;;;;;6197869;23;20319;-90
2022/06/22 20:11:39;;;;;;;15.82;7.68;;;27.10;99.90;;;;;;6196931;23;20086;-90
2022/06/22 20:14:12;;;;;;;15.93;9.30;;;27.10;99.90;;;;;;6196950;23;20015;-91
2022/06/22 20:17:04;;;;;;;21.35;10.27;;;27.10;99.90;;;;;;6196918;23;20028;-90
2022/06/22 20:19:31;;;;;;;25.55;11.05;;;27.10;99.90;;;;;;6196775;23;20023;-91
2022/06/22 20:22:20;;;;;;;40.63;19.83;;;27.10;99.90;;;;;;6196755;23;20004;-90
2022/06/22 20:24:56;;;;;;;51.28;22.55;;;27.20;99.90;;;;;;6196631;23;20078;-92
2022/06/22 20:28:01;;;;;;;43.58;19.88;;;27.20;99.90;;;;;;6196601;23;20015;-91
2022/06/22 20:30:48;;;;;;;37.08;19.20;;;27.30;99.90;;;;;;6073473;23;20528;-90
2022/06/22 20:33:53;;;;;;;59.28;23.90;;;27.30;99.90;;;;;;6073251;23;20026;-90
2022/06/22 20:36:46;;;;;;;50.83;21.65;;;27.30;99.90;;;;;;6073203;23;20093;-92
2022/06/22 20:39:12;;;;;;;49.30;21.30;;;27.40;99.90;;;;;;6068754;23;20037;-90
2022/06/22 20:42:15;;;;;;;50.13;20.80;;;27.40;99.90;;;;;;6073023;23;20006;-90
2022/06/22 20:45:13;;;;;;;49.53;22.63;;;27.30;99.90;;;;;;6015956;23;20357;-90
2022/06/22 20:48:04;;;;;;;42.22;19.95;;;27.20;99.90;;;;;;5985321;23;20029;-90
2022/06/22 20:50:33;;;;;;;41.45;18.85;;;27.10;99.90;;;;;;6049150;23;20018;-90
2022/06/22 20:53:21;;;;;;;40.47;19.13;;;27.10;99.90;;;;;;6072743;23;20341;-91
2022/06/22 20:55:50;;;;;;;38.00;17.58;;;27.10;99.90;;;;;;6072959;23;20583;-91
2022/06/22 20:58:39;;;;;;;35.92;15.77;;;27.00;99.90;;;;;;6072636;23;20014;-91
2022/06/22 21:01:09;;;;;;;28.70;14.50;;;26.80;99.90;;;;;;6073038;23;20030;-90
2022/06/22 21:03:52;;;;;;;27.85;13.65;;;26.70;99.90;;;;;;6048885;23;20026;-90
2022/06/22 21:06:29;;;;;;;24.77;11.98;;;26.50;99.90;;;;;;6142609;23;20032;-90
2022/06/22 21:09:07;;;;;;;16.77;9.00;;;26.50;99.90;;;;;;6191349;23;20012;-91
2022/06/22 21:11:50;;;;;;;13.45;8.00;;;26.40;99.90;;;;;;6191383;23;20015;-90
2022/06/22 21:14:28;;;;;;;14.70;9.18;;;26.40;99.90;;;;;;6191002;23;20027;-90
2022/06/22 21:17:18;;;;;;;22.00;8.50;;;26.40;99.90;;;;;;6190826;23;20013;-90
2022/06/22 21:19:49;;;;;;;16.67;7.72;;;26.30;99.90;;;;;;6191038;23;20004;-91
2022/06/22 21:22:28;;;;;;;16.35;9.13;;;26.30;99.90;;;;;;6191169;23;20067;-91
2022/06/22 21:24:55;;;;;;;15.80;7.60;;;26.20;99.90;;;;;;6191130;23;20020;-90
2022/06/22 21:27:28;;;;;;;13.30;6.80;;;26.30;99.90;;;;;;6190857;23;20049;-90
2022/06/22 21:30:26;;;;;;;14.18;6.47;;;26.20;99.90;;;;;;6191041;23;20008;-90
2022/06/22 21:33:14;;;;;;;16.17;6.85;;;26.20;99.90;;;;;;6101474;23;20089;-91
2022/06/22 21:36:04;;;;;;;12.50;6.25;;;26.20;99.90;;;;;;6101549;23;20058;-91
2022/06/22 21:38:44;;;;;;;15.18;6.20;;;26.10;99.90;;;;;;6077476;23;20448;-90
2022/06/22 21:41:28;;;;;;;15.70;7.10;;;26.10;99.90;;;;;;6101160;23;20014;-90
2022/06/22 21:44:27;;;;;;;15.95;6.88;;;26.00;99.90;;;;;;6101658;23;20018;-90
2022/06/22 21:47:13;;;;;;;13.10;6.22;;;26.00;99.90;;;;;;6077467;23;20010;-91
2022/06/22 21:50:08;;;;;;;16.52;6.50;;;26.00;99.90;;;;;;6077442;23;20064;-90
2022/06/22 21:53:06;;;;;;;17.55;6.63;;;26.00;99.90;;;;;;6077390;23;20010;-90
2022/06/22 21:55:44;;;;;;;15.48;6.93;;;26.00;99.90;;;;;;6077776;23;20006;-89
2022/06/22 21:58:36;;;;;;;10.30;6.20;;;26.00;99.90;;;;;;6079805;23;20559;-89
2022/06/22 22:01:22;;;;;;;17.73;6.60;;;26.00;99.90;;;;;;6077432;23;20021;-89
2022/06/22 22:04:14;;;;;;;13.10;6.72;;;25.80;99.90;;;;;;6101237;23;20018;-89
2022/06/22 22:07:03;;;;;;;14.68;7.22;;;25.80;99.90;;;;;;6078753;23;20336;-89
2022/06/22 22:09:34;;;;;;;14.68;6.68;;;25.80;99.90;;;;;;6150825;23;20017;-90
2022/06/22 22:12:18;;;;;;;17.55;6.82;;;25.80;99.90;;;;;;6160645;23;20032;-89
2022/06/22 22:15:02;;;;;;;;;;;25.90;99.90;;;;;;6161602;23;20013;-89
2022/06/22 22:17:37;;;;;;;25.77;10.98;;;25.90;99.90;;;;;;6160738;23;19910;-90
2022/06/22 22:20:20;;;;;;;20.83;9.15;;;26.00;99.90;;;;;;6160459;23;20005;-90
2022/06/22 22:22:54;;;;;;;17.67;8.30;;;26.20;99.90;;;;;;6160205;23;20032;-90
2022/06/22 22:25:34;;;;;;;12.60;7.22;;;26.30;99.90;;;;;;6160745;23;20013;-89
2022/06/22 22:28:10;;;;;;;20.88;7.85;;;26.30;99.90;;;;;;6160697;23;20005;-89
2022/06/22 22:30:53;;;;;;;16.83;8.73;;;26.30;99.90;;;;;;6160977;23;20013;-90
2022/06/22 22:33:20;;;;;;;13.52;7.93;;;26.20;99.90;;;;;;6165893;23;20009;-90
2022/06/22 22:35:51;;;;;;;12.48;7.88;;;26.10;99.90;;;;;;6165543;23;20008;-90
2022/06/22 22:38:23;;;;;;;10.13;7.47;;;26.10;99.90;;;;;;6165544;23;20020;-90
2022/06/22 22:41:00;;;;;;;16.27;8.25;;;26.20;99.90;;;;;;6165728;23;20016;-90
2022/06/22 22:44:06;;;;;;;10.82;7.43;;;26.30;99.90;;;;;;6165705;23;20013;-90
2022/06/22 22:46:55;;;;;;;14.63;8.02;;;26.40;99.90;;;;;;6165164;23;20031;-90
2022/06/22 22:49:41;;;;;;;13.05;7.53;;;26.40;99.90;;;;;;6165511;23;20005;-89
2022/06/22 22:52:56;;;;;;;10.50;7.45;;;26.50;99.90;;;;;;6167046;23;20486;-90
2022/06/22 22:55:29;;;;;;;11.00;6.97;;;26.60;99.90;;;;;;6072274;23;20006;-90
2022/06/22 22:57:57;;;;;;;19.58;7.68;;;26.50;99.90;;;;;;6071999;23;20085;-89
2022/06/22 23:00:39;;;;;;;15.32;7.45;;;26.30;99.90;;;;;;6071778;23;20025;-89
2022/06/22 23:03:20;;;;;;;9.90;7.13;;;26.20;99.90;;;;;;6072025;23;20022;-90
2022/06/22 23:06:10;;;;;;;8.38;6.63;;;26.00;99.90;;;;;;6072019;23;20019;-90
2022/06/22 23:08:36;;;;;;;12.10;6.90;;;25.80;99.90;;;;;;6071884;23;20010;-89
2022/06/22 23:11:09;;;;;;;11.98;7.53;;;25.70;99.90;;;;;;6072679;23;20085;-89
2022/06/22 23:13:55;;;;;;;9.38;7.30;;;25.50;99.90;;;;;;6072405;23;20020;-89
2022/06/22 23:16:32;;;;;;;12.82;7.10;;;25.50;99.90;;;;;;6072196;23;20514;-89
2022/06/22 23:18:59;;;;;;;11.30;7.32;;;25.40;99.90;;;;;;6071979;23;20077;-89
2022/06/22 23:21:35;;;;;;;13.13;7.18;;;25.30;99.90;;;;;;6072165;23;20022;-89
2022/06/22 23:24:11;;;;;;;13.48;7.13;;;25.30;99.90;;;;;;6072150;23;20018;-89
2022/06/22 23:26:43;;;;;;;13.35;7.55;;;25.10;99.90;;;;;;6071869;23;20013;-89
2022/06/22 23:29:11;;;;;;;10.98;7.47;;;25.00;99.90;;;;;;6071837;23;20021;-89
2022/06/22 23:31:55;;;;;;;12.93;7.70;;;25.00;99.90;;;;;;6135722;23;20435;-89
2022/06/22 23:34:24;;;;;;;11.20;7.22;;;24.90;99.90;;;;;;6191264;23;20019;-89
2022/06/22 23:37:28;;;;;;;12.15;7.35;;;25.00;99.90;;;;;;6192083;23;20323;-90
2022/06/22 23:39:56;;;;;;;12.90;7.40;;;25.00;99.90;;;;;;6192302;23;20008;-90
2022/06/22 23:42:26;;;;;;;11.65;7.35;;;25.10;99.90;;;;;;6192200;23;20001;-90
2022/06/22 23:44:53;;;;;;;14.25;7.55;;;25.10;99.90;;;;;;6192415;23;20134;-89
2022/06/22 23:50:08;;;;;;;14.90;8.50;;;25.00;99.90;;;;;;6217030;23;20012;-90
2022/06/22 23:52:54;;;;;;;14.23;7.32;;;25.00;99.90;;;;;;6192203;23;20004;-90
2022/06/22 23:55:25;;;;;;;16.08;8.02;;;24.90;99.90;;;;;;6191708;23;20008;-90
2022/06/22 23:57:59;;;;;;;16.13;8.20;;;24.80;99.90;;;;;;6191731;23;20017;-90
